Time;durP1;ratioP1;P1;durP2;ratioP2;P2;SDS_P1;SDS_P2;PMS_P1;PMS_P2;Temp;Humidity;BMP_temperature;BMP_pressure;BME280_temperature;BME280_humidity;BME280_pressure;Samples;Min_cycle;Max_cycle;Signal;HPM_P1;HPM_P2
2021/01/09 00:02:08;;;;;;;10.63;5.95;;;1.40;99.90;;;;;;5038473;28;20040;-42
2021/01/09 00:04:33;;;;;;;9.00;5.57;;;1.40;99.90;;;;;;5038526;28;20033;-44
2021/01/09 00:06:59;;;;;;;7.20;4.05;;;1.40;99.90;;;;;;5034440;28;20032;-45
2021/01/09 00:09:24;;;;;;;9.18;4.93;;;1.40;99.90;;;;;;5029396;28;20040;-41
2021/01/09 00:11:50;;;;;;;8.60;4.82;;;1.50;99.90;;;;;;5033176;28;20304;-46
2021/01/09 00:14:18;;;;;;;9.40;4.90;;;1.50;99.90;;;;;;5031740;28;20034;-45
2021/01/09 00:16:48;;;;;;;7.35;4.63;;;1.50;99.90;;;;;;5035744;28;20025;-48
2021/01/09 00:19:14;;;;;;;8.95;5.28;;;1.50;99.90;;;;;;5037820;28;20032;-44
2021/01/09 00:21:39;;;;;;;7.57;4.80;;;1.50;99.90;;;;;;5025812;28;20034;-44
2021/01/09 00:24:07;;;;;;;8.10;4.97;;;1.50;99.90;;;;;;5037336;28;20400;-46
2021/01/09 00:26:32;;;;;;;9.75;5.15;;;1.50;99.90;;;;;;5028060;28;20511;-44
2021/01/09 00:28:58;;;;;;;8.95;5.18;;;1.60;99.90;;;;;;5028849;28;20108;-44
2021/01/09 00:31:23;;;;;;;12.40;6.45;;;1.60;99.90;;;;;;5032279;28;20033;-45
2021/01/09 00:33:49;;;;;;;9.02;5.32;;;1.60;99.90;;;;;;5034542;28;20040;-45
2021/01/09 00:36:14;;;;;;;12.50;6.97;;;1.60;99.90;;;;;;5032123;28;20175;-43
2021/01/09 00:38:40;;;;;;;9.70;6.13;;;1.60;99.90;;;;;;5032945;28;20036;-42
2021/01/09 00:41:05;;;;;;;11.73;6.30;;;1.60;99.90;;;;;;5031528;28;20048;-45
2021/01/09 00:43:31;;;;;;;9.15;5.15;;;1.60;99.90;;;;;;5041098;28;20033;-47
2021/01/09 00:45:56;;;;;;;11.63;6.80;;;1.60;99.90;;;;;;5032318;28;20401;-44
2021/01/09 00:48:22;;;;;;;8.73;4.80;;;1.60;99.90;;;;;;5035400;28;20135;-44
2021/01/09 00:50:48;;;;;;;10.93;5.55;;;1.60;99.90;;;;;;5037388;28;20477;-46
2021/01/09 00:53:13;;;;;;;11.82;5.18;;;1.60;99.90;;;;;;5033642;28;20028;-44
2021/01/09 00:55:38;;;;;;;11.52;5.50;;;1.60;99.90;;;;;;5030931;28;20061;-47
2021/01/09 00:58:04;;;;;;;11.50;5.90;;;1.60;99.90;;;;;;5036483;28;20021;-41
2021/01/09 01:00:29;;;;;;;12.68;5.72;;;1.70;99.90;;;;;;5037136;28;20075;-43
2021/01/09 01:02:55;;;;;;;9.65;5.38;;;1.60;99.90;;;;;;5033686;28;20056;-44
2021/01/09 01:05:20;;;;;;;11.18;6.07;;;1.60;99.90;;;;;;5039276;28;20124;-46
2021/01/09 01:07:46;;;;;;;11.00;6.47;;;1.70;99.90;;;;;;5035095;28;20033;-44
2021/01/09 01:10:13;;;;;;;11.35;6.53;;;1.70;99.90;;;;;;5031603;28;20026;-45
2021/01/09 01:12:39;;;;;;;9.75;6.18;;;1.70;99.90;;;;;;5035919;28;20025;-44
2021/01/09 01:15:05;;;;;;;11.23;5.80;;;1.70;99.90;;;;;;5038305;28;20056;-44
2021/01/09 01:17:30;;;;;;;12.68;6.30;;;1.70;99.90;;;;;;5038706;28;20413;-43
2021/01/09 01:19:56;;;;;;;11.32;6.15;;;1.70;99.90;;;;;;5032164;28;20033;-44
2021/01/09 01:22:21;;;;;;;8.07;4.95;;;1.70;99.90;;;;;;5036896;28;20025;-45
2021/01/09 01:24:47;;;;;;;10.85;6.18;;;1.70;99.90;;;;;;5031181;28;20488;-44
2021/01/09 01:27:12;;;;;;;8.90;5.82;;;1.70;99.90;;;;;;5031730;28;20068;-47
2021/01/09 01:29:38;;;;;;;11.82;6.00;;;1.70;99.90;;;;;;5037202;28;20036;-42
2021/01/09 01:32:04;;;;;;;10.23;6.07;;;1.70;99.90;;;;;;5044021;28;20034;-44
2021/01/09 01:34:29;;;;;;;10.43;4.80;;;1.70;99.90;;;;;;5031698;28;20026;-44
2021/01/09 01:36:55;;;;;;;11.65;6.38;;;1.70;99.90;;;;;;5049880;28;20024;-45
2021/01/09 01:39:20;;;;;;;11.75;5.68;;;1.70;99.90;;;;;;5038204;28;20027;-46
2021/01/09 01:41:46;;;;;;;10.30;6.10;;;1.70;99.90;;;;;;5051604;28;20033;-47
2021/01/09 01:44:11;;;;;;;12.93;6.10;;;1.70;99.90;;;;;;5034227;28;20037;-45
2021/01/09 01:46:38;;;;;;;12.50;6.47;;;1.70;99.90;;;;;;5031859;28;20025;-45
2021/01/09 01:49:04;;;;;;;9.65;5.50;;;1.70;99.90;;;;;;5044941;28;20040;-44
2021/01/09 01:51:30;;;;;;;12.57;6.78;;;1.70;99.90;;;;;;5034566;28;20040;-45
2021/01/09 01:53:56;;;;;;;12.30;5.95;;;1.70;99.90;;;;;;5042040;28;20177;-44
2021/01/09 01:56:22;;;;;;;10.98;5.88;;;1.70;99.90;;;;;;5030293;28;20370;-49
2021/01/09 01:58:48;;;;;;;11.63;5.55;;;1.70;99.90;;;;;;5034413;28;20022;-41
2021/01/09 02:01:15;;;;;;;10.52;5.38;;;1.70;99.90;;;;;;5034508;28;20854;-42
2021/01/09 02:03:41;;;;;;;10.55;5.78;;;1.70;99.90;;;;;;5037451;28;20037;-44
2021/01/09 02:06:14;;;;;;;10.52;6.05;;;1.70;99.90;;;;;;5031082;28;20459;-44
2021/01/09 02:08:45;;;;;;;10.25;5.32;;;1.70;99.90;;;;;;5033469;28;20124;-44
2021/01/09 02:11:23;;;;;;;9.65;5.50;;;1.70;99.90;;;;;;5036565;28;20036;-43
2021/01/09 02:13:55;;;;;;;9.27;5.32;;;1.70;99.90;;;;;;5032357;28;20026;-44
2021/01/09 02:16:22;;;;;;;9.98;5.47;;;1.70;99.90;;;;;;5034554;28;20391;-45
2021/01/09 02:18:50;;;;;;;12.65;5.72;;;1.70;99.90;;;;;;5040330;28;20025;-45
2021/01/09 02:21:37;;;;;;;10.95;6.05;;;1.70;99.90;;;;;;5032464;28;20112;-43
2021/01/09 02:24:18;;;;;;;8.95;5.22;;;1.70;99.90;;;;;;5033716;28;20491;-43
2021/01/09 02:26:45;;;;;;;9.80;4.95;;;1.70;99.90;;;;;;5032189;28;20110;-43
2021/01/09 02:29:15;;;;;;;14.00;6.22;;;1.70;99.90;;;;;;5032709;28;20029;-43
2021/01/09 02:31:48;;;;;;;11.55;6.47;;;1.70;99.90;;;;;;5032889;28;20029;-43
2021/01/09 02:34:16;;;;;;;13.32;6.70;;;1.70;99.90;;;;;;5032386;28;20025;-43
2021/01/09 02:36:43;;;;;;;11.05;6.30;;;1.70;99.90;;;;;;5032977;28;20041;-44
2021/01/09 02:39:09;;;;;;;13.00;6.90;;;1.70;99.90;;;;;;5038033;28;20028;-43
2021/01/09 02:41:36;;;;;;;13.93;8.25;;;1.70;99.90;;;;;;5031221;28;20037;-42
2021/01/09 02:44:11;;;;;;;14.07;6.80;;;1.70;99.90;;;;;;5044976;28;20117;-46
2021/01/09 02:46:37;;;;;;;9.18;4.75;;;1.70;99.90;;;;;;5032373;28;20507;-43
2021/01/09 02:49:04;;;;;;;11.43;6.13;;;1.70;99.90;;;;;;5032154;28;20095;-45
2021/01/09 02:51:29;;;;;;;12.35;6.88;;;1.70;99.90;;;;;;5033978;28;20053;-45
2021/01/09 02:53:55;;;;;;;11.82;6.13;;;1.70;99.90;;;;;;5042835;28;20079;-41
2021/01/09 02:56:20;;;;;;;13.32;6.90;;;1.60;99.90;;;;;;5035407;28;20071;-41
2021/01/09 02:58:46;;;;;;;14.60;6.63;;;1.70;99.90;;;;;;5039537;28;20034;-45
2021/01/09 03:01:11;;;;;;;10.38;5.60;;;1.60;99.90;;;;;;5038118;28;20061;-45
2021/01/09 03:03:37;;;;;;;11.73;6.07;;;1.60;99.90;;;;;;5046597;28;20530;-44
2021/01/09 03:06:02;;;;;;;14.07;6.63;;;1.60;99.90;;;;;;5032640;28;20113;-43
2021/01/09 03:08:28;;;;;;;12.60;6.65;;;1.60;99.90;;;;;;5036654;28;20062;-41
2021/01/09 03:10:53;;;;;;;14.27;7.45;;;1.70;99.90;;;;;;5030582;28;20041;-44
2021/01/09 03:13:19;;;;;;;12.73;6.28;;;1.70;99.90;;;;;;5036367;28;20025;-47
2021/01/09 03:15:44;;;;;;;12.75;6.78;;;1.70;99.90;;;;;;5035818;28;20029;-44
2021/01/09 03:18:10;;;;;;;11.60;6.43;;;1.70;99.90;;;;;;5035782;28;20033;-45
2021/01/09 03:20:36;;;;;;;11.38;6.05;;;1.70;99.90;;;;;;5035560;28;20155;-45
2021/01/09 03:23:01;;;;;;;11.75;5.93;;;1.70;99.90;;;;;;5031520;28;20525;-44
2021/01/09 03:25:27;;;;;;;13.50;6.53;;;1.60;99.90;;;;;;5034072;28;20026;-44
2021/01/09 03:27:52;;;;;;;13.80;7.30;;;1.60;99.90;;;;;;5031532;28;20079;-50
2021/01/09 03:30:18;;;;;;;13.68;6.88;;;1.60;99.90;;;;;;5030935;28;20032;-44
2021/01/09 03:32:44;;;;;;;12.57;6.10;;;1.60;99.90;;;;;;5037511;28;20093;-42
2021/01/09 03:35:09;;;;;;;16.58;8.43;;;1.60;99.90;;;;;;5039086;28;20025;-41
2021/01/09 03:37:35;;;;;;;9.82;5.57;;;1.60;99.90;;;;;;5037124;28;20025;-47
2021/01/09 03:40:00;;;;;;;12.45;6.63;;;1.60;99.90;;;;;;5032915;28;20053;-43
2021/01/09 03:42:26;;;;;;;14.65;7.20;;;1.60;99.90;;;;;;5036169;28;20028;-43
2021/01/09 03:44:51;;;;;;;13.88;6.70;;;1.50;99.90;;;;;;5035599;28;20051;-45
2021/01/09 03:47:18;;;;;;;12.45;6.38;;;1.60;99.90;;;;;;5037662;28;20075;-42
2021/01/09 03:49:43;;;;;;;10.75;6.00;;;1.60;99.90;;;;;;5043725;28;20025;-46
2021/01/09 03:52:09;;;;;;;12.48;6.57;;;1.60;99.90;;;;;;5032901;28;20500;-44
2021/01/09 03:54:34;;;;;;;12.63;6.65;;;1.60;99.90;;;;;;5034876;28;20033;-44
2021/01/09 03:57:00;;;;;;;12.85;6.40;;;1.50;99.90;;;;;;5030289;28;20055;-45
2021/01/09 03:59:25;;;;;;;15.52;6.65;;;1.60;99.90;;;;;;5036094;28;20384;-42
2021/01/09 04:01:51;;;;;;;13.32;6.80;;;1.60;99.90;;;;;;5038051;28;20041;-42
2021/01/09 04:04:16;;;;;;;12.40;5.90;;;1.60;99.90;;;;;;5031563;28;20108;-45
2021/01/09 04:06:42;;;;;;;13.70;6.47;;;1.60;99.90;;;;;;5052889;28;20033;-44
2021/01/09 04:09:07;;;;;;;12.80;6.35;;;1.60;99.90;;;;;;5037845;28;20036;-45
2021/01/09 04:11:32;;;;;;;12.98;6.50;;;1.60;99.90;;;;;;5041460;28;20053;-43
2021/01/09 04:13:58;;;;;;;12.77;6.30;;;1.70;99.90;;;;;;5037451;28;20473;-43
2021/01/09 04:16:23;;;;;;;13.38;6.10;;;1.70;99.90;;;;;;5035117;28;20052;-41
2021/01/09 04:18:49;;;;;;;9.93;5.50;;;1.60;99.90;;;;;;5047833;28;20405;-41
2021/01/09 04:21:14;;;;;;;13.63;6.93;;;1.60;99.90;;;;;;5045298;28;20063;-45
2021/01/09 04:23:40;;;;;;;13.80;6.18;;;1.70;99.90;;;;;;5038061;28;20029;-43
2021/01/09 04:26:12;;;;;;;14.10;6.60;;;1.70;99.90;;;;;;5039623;28;20033;-43
2021/01/09 04:28:37;;;;;;;10.27;5.63;;;1.70;99.90;;;;;;5034616;28;20086;-46
2021/01/09 04:31:02;;;;;;;10.30;5.32;;;1.70;99.90;;;;;;5034060;28;20112;-43
2021/01/09 04:33:28;;;;;;;12.82;6.35;;;1.70;99.90;;;;;;5040044;28;20036;-46
2021/01/09 04:35:53;;;;;;;11.50;6.03;;;1.70;99.90;;;;;;5038562;28;20037;-43
2021/01/09 04:38:19;;;;;;;10.95;6.38;;;1.70;99.90;;;;;;5032415;28;20033;-41
2021/01/09 04:40:44;;;;;;;14.52;7.80;;;1.70;99.90;;;;;;5037276;28;20041;-43
2021/01/09 04:43:11;;;;;;;13.07;6.68;;;1.70;99.90;;;;;;5034489;28;20373;-47
2021/01/09 04:45:37;;;;;;;10.15;5.53;;;1.70;99.90;;;;;;5034126;28;20376;-44
2021/01/09 04:48:04;;;;;;;14.02;6.85;;;1.70;99.90;;;;;;5041356;28;20036;-45
2021/01/09 04:50:32;;;;;;;16.33;7.50;;;1.70;99.90;;;;;;5034238;28;20040;-44
2021/01/09 04:52:59;;;;;;;10.02;5.53;;;1.70;99.90;;;;;;5038127;28;20072;-41
2021/01/09 04:55:27;;;;;;;12.40;6.57;;;1.70;99.90;;;;;;5037860;28;20028;-45
2021/01/09 04:57:53;;;;;;;16.60;7.55;;;1.70;99.90;;;;;;5043003;28;20423;-44
2021/01/09 05:00:19;;;;;;;15.52;7.90;;;1.70;99.90;;;;;;5033886;28;20037;-46
2021/01/09 05:02:44;;;;;;;12.07;6.40;;;1.70;99.90;;;;;;5040151;28;20032;-44
2021/01/09 05:05:10;;;;;;;11.40;5.88;;;1.80;99.90;;;;;;5043549;28;20226;-43
2021/01/09 05:07:36;;;;;;;12.45;6.32;;;1.80;99.90;;;;;;5039723;28;20116;-44
2021/01/09 05:10:04;;;;;;;12.30;6.55;;;1.80;99.90;;;;;;5037766;28;20422;-46
2021/01/09 05:12:34;;;;;;;10.98;5.95;;;1.80;99.90;;;;;;5033138;28;20033;-45
2021/01/09 05:15:01;;;;;;;15.23;6.30;;;1.80;99.90;;;;;;5042662;28;20033;-44
2021/01/09 05:17:27;;;;;;;12.48;6.90;;;1.80;99.90;;;;;;5039882;28;20021;-44
2021/01/09 05:19:52;;;;;;;13.68;6.30;;;1.80;99.90;;;;;;5035781;28;20515;-45
2021/01/09 05:22:19;;;;;;;14.50;6.72;;;1.80;99.90;;;;;;5035114;28;20183;-41
2021/01/09 05:24:52;;;;;;;12.25;5.72;;;1.80;99.90;;;;;;5035573;28;20021;-43
2021/01/09 05:27:19;;;;;;;10.45;5.53;;;1.80;99.90;;;;;;5033257;28;20029;-44
2021/01/09 05:29:51;;;;;;;11.65;5.97;;;1.80;99.90;;;;;;5039463;28;20025;-44
2021/01/09 05:32:17;;;;;;;10.68;5.80;;;1.80;99.90;;;;;;5043640;28;20530;-42
2021/01/09 05:34:47;;;;;;;13.70;6.80;;;1.80;99.90;;;;;;5044931;28;20025;-43
2021/01/09 05:37:18;;;;;;;12.77;6.85;;;1.80;99.90;;;;;;5047046;28;20029;-46
2021/01/09 05:39:54;;;;;;;11.48;6.05;;;1.80;99.90;;;;;;5033684;28;20022;-43
2021/01/09 05:42:22;;;;;;;13.73;6.63;;;1.80;99.90;;;;;;5036668;28;20025;-43
2021/01/09 05:44:53;;;;;;;13.15;6.10;;;1.80;99.90;;;;;;5033967;28;20076;-42
2021/01/09 05:47:23;;;;;;;14.18;6.82;;;1.80;99.90;;;;;;5039663;28;20071;-41
2021/01/09 05:49:50;;;;;;;15.93;8.07;;;1.80;99.90;;;;;;5033494;28;20055;-44
2021/01/09 05:52:16;;;;;;;14.73;7.10;;;1.90;99.90;;;;;;5038847;28;20083;-42
2021/01/09 05:54:42;;;;;;;13.52;6.72;;;1.90;99.90;;;;;;5041902;28;20546;-47
2021/01/09 05:57:15;;;;;;;14.90;6.50;;;1.90;99.90;;;;;;5037514;28;20101;-45
2021/01/09 05:59:42;;;;;;;12.10;5.82;;;1.80;99.90;;;;;;5032815;28;20464;-47
2021/01/09 06:02:09;;;;;;;12.38;6.53;;;1.90;99.90;;;;;;5028596;28;20121;-45
2021/01/09 06:04:41;;;;;;;12.30;6.85;;;1.90;99.90;;;;;;5033403;28;20052;-44
2021/01/09 06:07:36;;;;;;;13.93;6.85;;;1.90;99.90;;;;;;5032907;28;20030;-45
2021/01/09 06:10:11;;;;;;;11.88;6.28;;;1.90;99.90;;;;;;5023078;28;20048;-43
2021/01/09 06:12:53;;;;;;;13.98;6.70;;;1.90;99.90;;;;;;5033482;28;20540;-42
2021/01/09 06:15:23;;;;;;;14.05;7.45;;;1.90;99.90;;;;;;5041425;28;20177;-43
2021/01/09 06:17:49;;;;;;;14.45;7.10;;;1.90;99.90;;;;;;5041182;28;20028;-44
2021/01/09 06:20:15;;;;;;;12.20;6.65;;;1.90;99.90;;;;;;5040270;28;20028;-46
2021/01/09 06:22:43;;;;;;;13.90;6.80;;;1.90;99.90;;;;;;5032728;28;20594;-44
2021/01/09 06:25:11;;;;;;;12.70;7.00;;;1.90;99.90;;;;;;5038839;28;20052;-44
2021/01/09 06:27:39;;;;;;;13.35;7.38;;;1.90;99.90;;;;;;5036777;28;20025;-44
2021/01/09 06:30:09;;;;;;;12.85;6.45;;;1.90;99.90;;;;;;5037869;28;20037;-43
2021/01/09 06:32:40;;;;;;;14.05;7.13;;;1.90;99.90;;;;;;5038394;28;20044;-42
2021/01/09 06:35:08;;;;;;;12.63;6.55;;;1.90;99.90;;;;;;5035072;28;20447;-43
2021/01/09 06:37:34;;;;;;;11.27;6.90;;;1.90;99.90;;;;;;5034365;28;20030;-42
2021/01/09 06:39:59;;;;;;;15.18;7.38;;;1.90;99.90;;;;;;5036318;28;20591;-41
2021/01/09 06:42:26;;;;;;;14.27;7.38;;;1.90;99.90;;;;;;5036928;28;20435;-42
2021/01/09 06:44:52;;;;;;;14.88;7.50;;;1.90;99.90;;;;;;5034395;28;20041;-43
2021/01/09 06:47:24;;;;;;;14.50;7.03;;;1.90;99.90;;;;;;5035286;28;20033;-42
2021/01/09 06:49:49;;;;;;;10.27;6.10;;;1.90;99.90;;;;;;5034152;28;20029;-44
2021/01/09 06:52:15;;;;;;;13.23;6.18;;;1.90;99.90;;;;;;5048525;28;20044;-44
2021/01/09 06:54:44;;;;;;;12.45;7.00;;;1.90;99.90;;;;;;5032801;28;20029;-44
2021/01/09 06:57:17;;;;;;;11.75;5.68;;;1.90;99.90;;;;;;5032768;28;20040;-44
2021/01/09 06:59:45;;;;;;;15.13;6.55;;;1.90;99.90;;;;;;5032904;28;20101;-43
2021/01/09 07:02:18;;;;;;;13.60;6.97;;;1.90;99.90;;;;;;5032230;28;20034;-41
2021/01/09 07:04:53;;;;;;;12.85;7.00;;;1.90;99.90;;;;;;5032216;28;20095;-45
2021/01/09 07:07:33;;;;;;;12.02;6.15;;;1.90;99.90;;;;;;5029468;28;20108;-46
2021/01/09 07:10:12;;;;;;;12.48;5.85;;;1.80;99.90;;;;;;5030837;28;20438;-44
2021/01/09 07:12:40;;;;;;;12.25;6.07;;;1.90;99.90;;;;;;5046213;28;20040;-47
2021/01/09 07:15:10;;;;;;;10.77;5.38;;;1.80;99.90;;;;;;5035104;28;20477;-45
2021/01/09 07:17:38;;;;;;;14.30;6.63;;;1.80;99.90;;;;;;5041442;28;20021;-43
2021/01/09 07:20:07;;;;;;;10.63;5.57;;;1.90;99.90;;;;;;5037766;28;20104;-44
2021/01/09 07:22:38;;;;;;;12.18;5.53;;;1.80;99.90;;;;;;5033153;28;20116;-41
2021/01/09 07:25:07;;;;;;;11.80;6.10;;;1.80;99.90;;;;;;5040153;28;20055;-47
2021/01/09 07:27:37;;;;;;;10.73;6.13;;;1.80;99.90;;;;;;5031834;28;20036;-43
2021/01/09 07:30:16;;;;;;;9.98;5.85;;;1.80;99.90;;;;;;5041983;28;20424;-45
2021/01/09 07:33:00;;;;;;;11.98;5.82;;;1.80;99.90;;;;;;5050627;28;20071;-48
2021/01/09 07:35:32;;;;;;;7.95;4.85;;;1.70;99.90;;;;;;5037969;28;20528;-45
2021/01/09 07:38:03;;;;;;;10.43;5.38;;;1.70;99.90;;;;;;5029458;28;20396;-42
2021/01/09 07:40:54;;;;;;;11.00;5.68;;;1.70;99.90;;;;;;5034555;28;20022;-41
2021/01/09 07:43:41;;;;;;;8.20;4.80;;;1.70;99.90;;;;;;5031127;28;20030;-45
2021/01/09 07:46:30;;;;;;;9.88;5.22;;;1.70;99.90;;;;;;5033319;28;20028;-43
2021/01/09 07:48:57;;;;;;;9.70;4.53;;;1.80;99.90;;;;;;5034789;28;20103;-43
2021/01/09 07:51:50;;;;;;;7.57;4.00;;;1.80;99.90;;;;;;5034523;28;20068;-44
2021/01/09 07:54:35;;;;;;;9.20;5.22;;;1.90;99.90;;;;;;5035072;28;20056;-44
2021/01/09 07:57:05;;;;;;;7.45;3.72;;;1.90;99.90;;;;;;5034028;28;20068;-45
2021/01/09 07:59:31;;;;;;;6.72;3.60;;;2.00;99.90;;;;;;5039067;28;20493;-44
2021/01/09 08:01:56;;;;;;;8.50;4.32;;;2.00;99.90;;;;;;5027632;28;20033;-42
2021/01/09 08:04:22;;;;;;;19.98;4.95;;;2.00;99.90;;;;;;5028491;28;20025;-43
2021/01/09 08:06:47;;;;;;;7.40;3.88;;;2.10;99.90;;;;;;5026516;28;20092;-44
2021/01/09 08:09:13;;;;;;;11.32;4.28;;;2.10;99.90;;;;;;5027323;28;20396;-43
2021/01/09 08:11:42;;;;;;;8.15;4.50;;;2.20;99.90;;;;;;5044046;28;20025;-42
2021/01/09 08:14:08;;;;;;;6.85;3.47;;;2.30;99.90;;;;;;5030410;28;20029;-46
2021/01/09 08:16:33;;;;;;;6.22;3.42;;;2.30;99.90;;;;;;5023860;28;20381;-41
2021/01/09 08:19:19;;;;;;;6.50;3.88;;;2.40;99.90;;;;;;5024486;28;20025;-43
2021/01/09 08:21:53;;;;;;;5.07;3.40;;;2.40;99.90;;;;;;5027351;28;20034;-41
2021/01/09 08:24:26;;;;;;;6.13;3.65;;;2.40;99.90;;;;;;5023737;28;20473;-41
2021/01/09 08:26:57;;;;;;;6.05;3.60;;;2.50;99.90;;;;;;5018011;28;20125;-41
2021/01/09 08:29:26;;;;;;;6.15;3.42;;;2.60;99.90;;;;;;5021926;28;20037;-46
2021/01/09 08:31:53;;;;;;;5.45;3.08;;;2.70;99.90;;;;;;5030618;28;20030;-44
2021/01/09 08:34:20;;;;;;;4.80;3.25;;;2.70;99.90;;;;;;5024119;28;20433;-44
2021/01/09 08:36:49;;;;;;;5.25;3.53;;;2.80;99.90;;;;;;5023811;28;20030;-43
2021/01/09 08:39:15;;;;;;;4.53;3.10;;;2.90;99.90;;;;;;5031243;28;20034;-44
2021/01/09 08:41:41;;;;;;;4.53;3.30;;;2.90;99.90;;;;;;5027378;28;20096;-42
2021/01/09 08:44:10;;;;;;;6.68;3.67;;;3.00;99.90;;;;;;5024365;28;20079;-42
2021/01/09 08:46:37;;;;;;;5.70;3.22;;;2.90;99.90;;;;;;5029660;28;20033;-43
2021/01/09 08:49:04;;;;;;;7.35;3.90;;;2.90;99.90;;;;;;5027686;28;20037;-44
2021/01/09 08:51:32;;;;;;;7.47;3.85;;;2.90;99.90;;;;;;5025134;28;20042;-45
2021/01/09 08:54:02;;;;;;;6.28;3.47;;;2.90;99.90;;;;;;5019953;28;20067;-44
2021/01/09 08:56:30;;;;;;;7.03;3.83;;;2.90;99.90;;;;;;5021726;28;20030;-42
2021/01/09 08:59:08;;;;;;;9.02;4.25;;;2.90;99.90;;;;;;5025423;28;20030;-41
2021/01/09 09:01:48;;;;;;;6.95;4.00;;;2.90;99.90;;;;;;5022492;28;20026;-44
2021/01/09 09:04:16;;;;;;;7.22;4.18;;;2.90;99.90;;;;;;5028869;28;20030;-44
2021/01/09 09:06:44;;;;;;;7.88;4.22;;;2.90;99.90;;;;;;5035723;28;23572;-43
2021/01/09 09:09:14;;;;;;;7.25;4.18;;;2.90;99.90;;;;;;5036993;28;20390;-44
2021/01/09 09:11:41;;;;;;;7.07;4.03;;;3.00;99.90;;;;;;5028509;28;20109;-42
2021/01/09 09:14:08;;;;;;;7.15;4.20;;;3.00;99.90;;;;;;5035211;28;20021;-42
2021/01/09 09:16:35;;;;;;;8.35;4.35;;;3.00;99.90;;;;;;5028607;28;20040;-41
2021/01/09 09:19:18;;;;;;;6.53;3.75;;;3.00;99.90;;;;;;5024251;28;20079;-42
2021/01/09 09:21:48;;;;;;;6.45;3.92;;;3.10;99.90;;;;;;5026269;28;20034;-43
2021/01/09 09:24:15;;;;;;;7.97;4.50;;;3.10;99.90;;;;;;5028649;28;20026;-42
2021/01/09 09:26:42;;;;;;;7.90;4.47;;;3.10;99.90;;;;;;5028075;28;20079;-42
2021/01/09 09:29:09;;;;;;;8.18;4.88;;;3.10;99.90;;;;;;5033274;28;20029;-42
2021/01/09 09:31:43;;;;;;;6.90;3.97;;;3.20;99.90;;;;;;5024246;28;20136;-42
2021/01/09 09:34:13;;;;;;;7.70;4.45;;;3.20;99.90;;;;;;5030248;28;20023;-43
2021/01/09 09:36:49;;;;;;;6.28;4.43;;;3.20;99.90;;;;;;5023253;28;20018;-44
2021/01/09 09:39:16;;;;;;;;;;;3.20;99.90;;;;;;5026263;28;20029;-42
2021/01/09 09:41:53;;;;;;;6.30;3.70;;;3.20;99.90;;;;;;5030052;28;20435;-43
2021/01/09 09:44:19;;;;;;;6.43;3.95;;;3.30;99.90;;;;;;5030189;28;20666;-46
2021/01/09 09:46:49;;;;;;;6.50;4.05;;;3.30;99.90;;;;;;5030109;28;20408;-44
2021/01/09 09:49:15;;;;;;;6.90;4.38;;;3.30;99.90;;;;;;5028405;28;20021;-44
2021/01/09 09:51:40;;;;;;;8.20;4.50;;;3.40;99.90;;;;;;5033090;28;20208;-42
2021/01/09 09:54:06;;;;;;;8.52;4.80;;;3.40;99.90;;;;;;5029138;28;20150;-44
2021/01/09 09:56:37;;;;;;;8.07;5.03;;;3.40;99.90;;;;;;5031004;28;20026;-46
2021/01/09 09:59:05;;;;;;;7.28;4.13;;;3.40;99.90;;;;;;5032256;28;20032;-48
2021/01/09 10:01:30;;;;;;;5.80;3.60;;;3.40;99.90;;;;;;5030641;28;20040;-44
2021/01/09 10:03:56;;;;;;;8.27;4.63;;;3.40;99.90;;;;;;5032835;28;20037;-46
2021/01/09 10:06:22;;;;;;;7.78;4.03;;;3.40;99.90;;;;;;5028794;28;20036;-45
2021/01/09 10:08:48;;;;;;;9.15;5.55;;;3.40;99.90;;;;;;5030920;28;20037;-41
2021/01/09 10:11:14;;;;;;;7.55;4.72;;;3.40;99.90;;;;;;5012752;28;20026;-43
2021/01/09 10:13:39;;;;;;;8.20;5.15;;;3.40;99.90;;;;;;5033946;28;20377;-47
2021/01/09 10:16:05;;;;;;;9.93;6.00;;;3.40;99.90;;;;;;5028095;28;20033;-42
2021/01/09 10:18:32;;;;;;;10.25;5.68;;;3.50;99.90;;;;;;5025997;28;20079;-42
2021/01/09 10:20:58;;;;;;;9.52;5.47;;;3.50;99.90;;;;;;5035996;28;20033;-45
2021/01/09 10:23:25;;;;;;;13.18;7.15;;;3.50;99.90;;;;;;5032059;28;20647;-44
2021/01/09 10:25:51;;;;;;;10.98;6.32;;;3.50;99.90;;;;;;5025887;28;20145;-42
2021/01/09 10:28:16;;;;;;;13.98;6.32;;;3.60;99.90;;;;;;5029788;28;20596;-46
2021/01/09 10:30:42;;;;;;;11.45;6.10;;;3.60;99.90;;;;;;5024179;28;20029;-44
2021/01/09 10:33:07;;;;;;;11.65;6.45;;;3.60;99.90;;;;;;5026848;28;20037;-44
2021/01/09 10:35:33;;;;;;;10.35;6.15;;;3.60;99.90;;;;;;5026829;28;20116;-42
2021/01/09 10:37:59;;;;;;;13.85;6.55;;;3.60;99.90;;;;;;5039994;28;20048;-46
2021/01/09 10:40:25;;;;;;;10.68;5.53;;;3.60;99.90;;;;;;5025707;28;20385;-42
2021/01/09 10:42:51;;;;;;;10.15;5.38;;;3.70;99.90;;;;;;5031037;28;20026;-45
2021/01/09 10:45:17;;;;;;;10.52;6.35;;;3.60;99.90;;;;;;5024962;28;20033;-47
2021/01/09 10:47:42;;;;;;;8.60;5.05;;;3.60;99.90;;;;;;5030890;28;20017;-44
2021/01/09 10:50:09;;;;;;;9.40;5.05;;;3.60;99.90;;;;;;5027048;28;20025;-46
2021/01/09 10:52:34;;;;;;;8.95;5.03;;;3.60;99.90;;;;;;5022631;28;20405;-45
2021/01/09 10:55:00;;;;;;;8.50;4.65;;;3.60;99.90;;;;;;5023776;28;20029;-43
2021/01/09 10:57:26;;;;;;;8.93;4.78;;;3.60;99.90;;;;;;5023845;28;20028;-46
2021/01/09 10:59:51;;;;;;;9.73;4.75;;;3.60;99.90;;;;;;5027156;28;20037;-48
2021/01/09 11:02:17;;;;;;;12.30;5.70;;;3.60;99.90;;;;;;5023168;28;20049;-47
2021/01/09 11:04:42;;;;;;;10.65;6.05;;;3.60;99.90;;;;;;5024297;28;20064;-45
2021/01/09 11:07:08;;;;;;;11.05;5.70;;;3.60;99.90;;;;;;5018710;28;20033;-43
2021/01/09 11:09:34;;;;;;;8.77;5.30;;;3.60;99.90;;;;;;5030638;28;20053;-43
2021/01/09 11:11:59;;;;;;;10.23;5.43;;;3.60;99.90;;;;;;5026473;28;20041;-42
2021/01/09 11:14:25;;;;;;;9.98;5.95;;;3.60;99.90;;;;;;5036199;28;20025;-43
2021/01/09 11:16:55;;;;;;;9.05;5.25;;;3.60;99.90;;;;;;5030023;28;20033;-42
2021/01/09 11:19:20;;;;;;;10.27;5.82;;;3.50;99.90;;;;;;5028666;28;20473;-44
2021/01/09 11:21:46;;;;;;;10.32;5.38;;;3.50;99.90;;;;;;5031849;28;20069;-44
2021/01/09 11:24:11;;;;;;;11.30;5.57;;;3.50;99.90;;;;;;5030014;28;20071;-45
2021/01/09 11:26:37;;;;;;;10.93;6.32;;;3.50;99.90;;;;;;5020750;28;20034;-45
2021/01/09 11:29:02;;;;;;;13.55;7.38;;;3.50;99.90;;;;;;5014214;28;20060;-47
2021/01/09 11:31:28;;;;;;;11.85;6.03;;;3.50;99.90;;;;;;5028492;28;20481;-45
2021/01/09 11:33:53;;;;;;;13.15;6.18;;;3.50;99.90;;;;;;5039962;28;20034;-42
2021/01/09 11:36:19;;;;;;;11.52;5.85;;;3.40;99.90;;;;;;5028528;28;20021;-47
2021/01/09 11:38:46;;;;;;;12.98;6.30;;;3.50;99.90;;;;;;5029740;28;20025;-43
2021/01/09 11:41:12;;;;;;;11.13;5.57;;;3.40;99.90;;;;;;5030347;28;20029;-43
2021/01/09 11:43:39;;;;;;;12.98;5.82;;;3.40;99.90;;;;;;5032631;28;20376;-45
2021/01/09 11:46:07;;;;;;;12.88;6.13;;;3.40;99.90;;;;;;5025165;28;20029;-40
2021/01/09 11:48:33;;;;;;;13.60;7.00;;;3.40;99.90;;;;;;5028727;28;20017;-44
2021/01/09 11:50:58;;;;;;;14.15;7.05;;;3.40;99.90;;;;;;5030621;28;20594;-41
2021/01/09 11:53:23;;;;;;;11.10;5.90;;;3.30;99.90;;;;;;5030808;28;20052;-44
2021/01/09 11:55:50;;;;;;;11.13;5.20;;;3.40;99.90;;;;;;5023092;28;20037;-42
2021/01/09 11:58:18;;;;;;;13.32;6.65;;;3.40;99.90;;;;;;5030689;28;20027;-42
2021/01/09 12:00:44;;;;;;;12.15;5.95;;;3.40;99.90;;;;;;5027245;28;20052;-41
2021/01/09 12:03:10;;;;;;;11.85;6.43;;;3.40;99.90;;;;;;5043921;28;20026;-44
2021/01/09 12:05:36;;;;;;;13.93;6.80;;;3.40;99.90;;;;;;5029525;28;20508;-43
2021/01/09 12:08:02;;;;;;;14.43;6.05;;;3.40;99.90;;;;;;5027702;28;20076;-43
2021/01/09 12:10:28;;;;;;;13.93;6.68;;;3.40;99.90;;;;;;5024636;28;20013;-42
2021/01/09 12:12:55;;;;;;;12.80;6.03;;;3.40;99.90;;;;;;5030037;28;20538;-41
2021/01/09 12:15:20;;;;;;;12.13;6.30;;;3.40;99.90;;;;;;5029880;28;20477;-42
2021/01/09 12:17:45;;;;;;;12.60;5.90;;;3.40;99.90;;;;;;5029614;28;20028;-41
2021/01/09 12:20:11;;;;;;;15.35;5.65;;;3.40;99.90;;;;;;5022460;28;20452;-41
2021/01/09 12:22:38;;;;;;;14.02;6.90;;;3.40;99.90;;;;;;5025240;28;20041;-41
2021/01/09 12:25:04;;;;;;;14.82;6.72;;;3.40;99.90;;;;;;5029787;28;20047;-46
2021/01/09 12:27:29;;;;;;;15.50;6.57;;;3.40;99.90;;;;;;5024165;28;20511;-43
2021/01/09 12:29:55;;;;;;;15.13;6.32;;;3.40;99.90;;;;;;5025919;28;20026;-44
2021/01/09 12:32:20;;;;;;;12.20;6.32;;;3.50;99.90;;;;;;5026918;28;20477;-41
2021/01/09 12:34:46;;;;;;;14.02;6.22;;;3.50;99.90;;;;;;5029707;28;20021;-44
2021/01/09 12:37:11;;;;;;;14.38;6.15;;;3.50;99.90;;;;;;5026886;28;20033;-45
2021/01/09 12:39:37;;;;;;;16.40;7.57;;;3.50;99.90;;;;;;5028903;28;20029;-42
2021/01/09 12:42:03;;;;;;;14.60;6.60;;;3.50;99.90;;;;;;5031153;28;20053;-43
2021/01/09 12:44:28;;;;;;;15.18;6.53;;;3.60;99.90;;;;;;5027402;28;20087;-43
2021/01/09 12:46:54;;;;;;;15.70;7.00;;;3.60;99.90;;;;;;5030740;28;20040;-42
2021/01/09 12:49:21;;;;;;;15.95;6.72;;;3.50;99.90;;;;;;5025931;28;20018;-43
2021/01/09 12:51:48;;;;;;;11.20;5.82;;;3.50;99.90;;;;;;5030792;28;20041;-42
2021/01/09 12:54:13;;;;;;;14.50;6.45;;;3.50;99.90;;;;;;5022641;28;20025;-41